createdAt,value
2019-05-20T00:00:31.334Z,7.83
2019-05-20T00:03:00.059Z,8.18
2019-05-20T00:05:28.777Z,9.03
2019-05-20T00:07:57.531Z,10.00
2019-05-20T00:10:26.341Z,8.58
2019-05-20T00:12:55.041Z,9.13
2019-05-20T00:15:23.787Z,9.83
2019-05-20T00:17:52.805Z,6.28
2019-05-20T00:20:21.417Z,9.83
2019-05-20T00:22:50.099Z,10.08
2019-05-20T00:25:18.942Z,6.30
2019-05-20T00:27:47.817Z,8.68
2019-05-20T00:30:17.445Z,13.28
2019-05-20T00:32:46.312Z,9.45
2019-05-20T00:35:15.174Z,11.63
2019-05-20T00:37:44.056Z,32.73
2019-05-20T00:40:13.033Z,30.20
2019-05-20T00:42:41.830Z,30.10
2019-05-20T00:45:12.099Z,33.95
2019-05-20T00:47:40.889Z,33.18
2019-05-20T00:50:10.794Z,30.32
2019-05-20T00:52:39.624Z,25.80
2019-05-20T00:55:10.178Z,29.82
2019-05-20T00:57:40.125Z,17.32
2019-05-20T01:00:09.818Z,18.35
2019-05-20T01:02:38.549Z,12.18
2019-05-20T01:05:07.466Z,13.58
2019-05-20T01:07:36.220Z,8.18
2019-05-20T01:10:06.527Z,8.95
2019-05-20T01:12:35.324Z,7.53
2019-05-20T01:15:04.920Z,6.80
2019-05-20T01:17:33.716Z,7.05
2019-05-20T01:20:02.790Z,8.48
2019-05-20T01:22:31.580Z,4.17
2019-05-20T01:25:00.399Z,6.75
2019-05-20T01:27:29.299Z,6.25
2019-05-20T01:29:58.164Z,7.75
2019-05-20T01:32:26.954Z,7.47
2019-05-20T01:34:55.732Z,8.55
2019-05-20T01:37:24.563Z,6.83
2019-05-20T01:39:53.365Z,5.50
2019-05-20T01:42:22.200Z,8.28
2019-05-20T01:44:51.011Z,7.67
2019-05-20T01:47:19.856Z,9.08
2019-05-20T01:49:48.758Z,5.67
2019-05-20T01:52:17.541Z,5.08
2019-05-20T01:54:46.394Z,5.87
2019-05-20T01:57:15.209Z,6.55
2019-05-20T01:59:44.011Z,6.70
2019-05-20T02:02:12.762Z,7.60
2019-05-20T02:04:41.651Z,6.80
2019-05-20T02:07:10.410Z,4.62
2019-05-20T02:09:39.297Z,7.03
2019-05-20T02:12:08.099Z,10.10
2019-05-20T02:14:47.591Z,11.18
2019-05-20T02:17:17.635Z,9.08
2019-05-20T02:19:46.409Z,8.95
2019-05-20T02:22:15.331Z,10.75
2019-05-20T02:24:44.237Z,8.08
2019-05-20T02:27:13.005Z,6.20
2019-05-20T02:29:41.805Z,10.63
2019-05-20T02:32:10.602Z,6.17
2019-05-20T02:34:39.515Z,5.67
2019-05-20T02:37:08.368Z,7.85
2019-05-20T02:39:37.250Z,12.40
2019-05-20T02:42:06.084Z,4.92
2019-05-20T02:44:34.875Z,5.12
2019-05-20T02:47:03.752Z,7.62
2019-05-20T02:49:32.603Z,9.35
2019-05-20T02:52:01.396Z,7.83
2019-05-20T02:54:30.270Z,5.03
2019-05-20T02:56:59.117Z,8.05
2019-05-20T02:59:27.875Z,7.72
2019-05-20T03:01:56.754Z,9.90
2019-05-20T03:04:25.661Z,9.78
2019-05-20T03:06:54.446Z,9.68
2019-05-20T03:09:23.223Z,5.22
2019-05-20T03:11:52.026Z,9.10
2019-05-20T03:14:20.776Z,5.97
2019-05-20T03:16:49.668Z,5.55
2019-05-20T03:19:18.473Z,9.38
2019-05-20T03:21:47.337Z,6.60
2019-05-20T03:24:16.287Z,11.25
2019-05-20T03:26:45.183Z,15.68
2019-05-20T03:29:14.548Z,14.10
2019-05-20T03:31:43.436Z,12.90
2019-05-20T03:34:40.895Z,11.25
2019-05-20T03:36:42.713Z,10.08
2019-05-20T03:39:11.620Z,11.15
2019-05-20T03:41:40.404Z,10.15
2019-05-20T03:44:09.195Z,6.53
2019-05-20T03:46:38.052Z,13.70
2019-05-20T03:49:06.831Z,12.98
2019-05-20T03:55:07.748Z,11.38
2019-05-20T03:57:36.560Z,6.95
2019-05-20T04:00:06.631Z,8.18
2019-05-20T04:02:35.570Z,11.97
2019-05-20T04:05:04.965Z,11.75
2019-05-20T04:07:33.754Z,13.88
2019-05-20T04:10:02.622Z,11.70
2019-05-20T04:12:31.362Z,9.63
2019-05-20T04:15:00.150Z,8.10
2019-05-20T04:17:29.007Z,5.87
2019-05-20T04:19:57.951Z,7.20
2019-05-20T04:22:26.851Z,9.90
2019-05-20T04:24:57.318Z,10.95
2019-05-20T04:27:26.143Z,6.87
2019-05-20T04:29:54.927Z,11.68
2019-05-20T04:32:23.701Z,12.60
2019-05-20T04:34:52.557Z,13.20
2019-05-20T04:37:21.385Z,12.20
2019-05-20T04:39:50.204Z,11.35
2019-05-20T04:42:18.989Z,11.55
2019-05-20T04:44:47.782Z,14.70
2019-05-20T04:47:16.547Z,13.38
2019-05-20T04:49:45.376Z,12.53
2019-05-20T04:55:54.976Z,7.25
2019-05-20T04:58:23.769Z,10.50
2019-05-20T05:00:54.871Z,8.55
2019-05-20T05:03:24.223Z,9.83
2019-05-20T05:05:53.218Z,12.80
2019-05-20T05:08:22.427Z,6.78
2019-05-20T05:10:51.587Z,9.63
2019-05-20T05:13:21.383Z,13.43
2019-05-20T05:15:50.163Z,10.55
2019-05-20T05:18:19.099Z,10.58
2019-05-20T05:20:48.385Z,8.40
2019-05-20T05:23:17.344Z,14.38
2019-05-20T05:25:46.530Z,11.48
2019-05-20T05:28:15.336Z,9.30
2019-05-20T05:30:45.835Z,8.70
2019-05-20T05:33:14.642Z,14.87
2019-05-20T05:35:52.710Z,11.00
2019-05-20T05:38:14.005Z,11.53
2019-05-20T05:40:42.960Z,9.08
2019-05-20T05:43:11.891Z,13.58
2019-05-20T05:45:40.696Z,15.03
2019-05-20T05:48:09.497Z,14.18
2019-05-20T05:50:38.270Z,10.98
2019-05-20T05:53:07.158Z,12.07
2019-05-20T05:55:36.038Z,11.28
2019-05-20T05:58:08.392Z,13.22
2019-05-20T06:00:35.367Z,14.73
2019-05-20T06:03:04.155Z,13.38
2019-05-20T06:05:32.979Z,8.88
2019-05-20T06:08:01.825Z,12.60
2019-05-20T06:10:30.628Z,12.53
2019-05-20T06:12:59.407Z,12.10
2019-05-20T06:15:28.221Z,13.98
2019-05-20T06:17:56.984Z,8.48
2019-05-20T06:20:25.893Z,17.05
2019-05-20T06:22:54.676Z,11.75
2019-05-20T06:25:23.433Z,16.07
2019-05-20T06:27:52.228Z,13.62
2019-05-20T06:30:23.982Z,14.15
2019-05-20T06:32:53.050Z,11.80
2019-05-20T06:35:21.837Z,10.18
2019-05-20T06:37:52.262Z,17.60
2019-05-20T06:40:21.059Z,10.82
2019-05-20T06:42:49.848Z,8.40
2019-05-20T06:45:18.641Z,8.33
2019-05-20T06:47:47.483Z,9.33
2019-05-20T06:50:16.943Z,11.12
2019-05-20T06:52:45.761Z,13.40
2019-05-20T06:55:15.287Z,15.40
2019-05-20T06:57:44.081Z,12.47
2019-05-20T07:00:13.665Z,12.85
2019-05-20T07:02:42.446Z,13.25
2019-05-20T07:05:11.535Z,15.03
2019-05-20T07:07:40.411Z,11.22
2019-05-20T07:10:10.517Z,15.85
2019-05-20T07:12:41.576Z,12.65
2019-05-20T07:15:10.203Z,14.20
2019-05-20T07:17:39.055Z,12.03
2019-05-20T07:20:07.993Z,11.90
2019-05-20T07:22:53.897Z,11.15
2019-05-20T07:25:07.669Z,9.65
2019-05-20T07:27:36.570Z,8.75
2019-05-20T07:30:09.643Z,8.60
2019-05-20T07:32:38.499Z,10.82
2019-05-20T07:35:08.283Z,10.60
2019-05-20T07:37:37.178Z,11.18
2019-05-20T07:40:07.114Z,8.93
2019-05-20T07:42:35.912Z,6.40
2019-05-20T07:45:07.039Z,9.03
2019-05-20T07:47:36.104Z,6.65
2019-05-20T07:50:09.394Z,10.75
2019-05-20T07:52:38.674Z,11.60
2019-05-20T07:55:08.825Z,9.58
2019-05-20T07:57:40.751Z,7.85
2019-05-20T08:00:10.302Z,9.40
2019-05-20T08:02:39.492Z,10.23
2019-05-20T08:05:09.519Z,12.50
2019-05-20T08:07:51.377Z,13.48
2019-05-20T08:10:09.249Z,10.70
2019-05-20T08:12:38.090Z,13.22
2019-05-20T08:15:08.201Z,7.22
2019-05-20T08:17:36.964Z,10.78
2019-05-20T08:20:07.302Z,5.85
2019-05-20T08:22:36.105Z,6.70
2019-05-20T08:25:06.832Z,10.93
2019-05-20T08:27:35.707Z,6.60
2019-05-20T08:30:06.729Z,7.97
2019-05-20T08:32:35.545Z,8.50
2019-05-20T08:35:06.079Z,5.90
2019-05-20T08:37:44.799Z,10.80
2019-05-20T08:40:06.534Z,12.00
2019-05-20T08:42:35.328Z,8.93
2019-05-20T08:45:06.302Z,8.53
2019-05-20T08:47:35.059Z,9.88
2019-05-20T08:50:08.230Z,12.35
2019-05-20T08:52:35.959Z,11.80
2019-05-20T08:55:05.288Z,11.33
2019-05-20T08:57:34.191Z,24.00
2019-05-20T09:00:03.507Z,15.83
2019-05-20T09:02:32.446Z,14.10
2019-05-20T09:05:01.234Z,9.35
2019-05-20T09:07:30.046Z,11.05
2019-05-20T09:09:58.846Z,12.40
2019-05-20T09:12:27.675Z,15.88
2019-05-20T09:14:56.464Z,12.37
2019-05-20T09:17:25.235Z,6.45
2019-05-20T09:19:54.168Z,11.57
2019-05-20T09:22:22.931Z,11.75
2019-05-20T09:24:51.896Z,12.13
2019-05-20T09:27:20.825Z,15.68
2019-05-20T09:29:49.620Z,15.58
2019-05-20T09:32:18.456Z,9.95
2019-05-20T09:34:47.534Z,11.50
2019-05-20T09:37:16.368Z,15.35
2019-05-20T09:39:45.138Z,11.35
2019-05-20T09:42:13.947Z,10.03
2019-05-20T09:44:42.765Z,8.00
2019-05-20T09:47:11.541Z,12.18
2019-05-20T09:49:40.425Z,8.93
2019-05-20T09:52:09.312Z,10.63
2019-05-20T09:54:38.138Z,11.22
2019-05-20T09:57:06.879Z,9.83
2019-05-20T09:59:43.447Z,8.75
2019-05-20T10:02:06.088Z,13.62
2019-05-20T10:04:34.962Z,8.28
2019-05-20T10:07:03.791Z,13.85
2019-05-20T10:09:32.570Z,12.28
2019-05-20T10:12:01.436Z,11.28
2019-05-20T10:14:30.212Z,9.50
2019-05-20T10:16:58.956Z,11.05
2019-05-20T10:19:27.736Z,12.47
2019-05-20T10:21:56.519Z,11.03
2019-05-20T10:24:25.355Z,9.55
2019-05-20T10:26:54.237Z,12.00
2019-05-20T10:29:23.055Z,12.65
2019-05-20T10:31:51.869Z,13.90
2019-05-20T10:34:20.656Z,11.10
2019-05-20T10:36:49.480Z,9.60
2019-05-20T10:39:18.265Z,14.60
2019-05-20T10:41:47.090Z,7.12
2019-05-20T10:44:15.914Z,10.48
2019-05-20T10:46:44.780Z,7.58
2019-05-20T10:49:13.582Z,11.30
2019-05-20T10:51:42.398Z,10.30
2019-05-20T10:54:11.166Z,4.80
2019-05-20T10:56:39.918Z,6.97
2019-05-20T10:59:11.965Z,6.35
2019-05-20T11:01:39.282Z,10.32
2019-05-20T11:04:08.136Z,7.80
2019-05-20T11:06:36.984Z,13.28
2019-05-20T11:09:14.008Z,8.28
2019-05-20T11:11:39.451Z,12.95
2019-05-20T11:14:07.452Z,8.98
2019-05-20T11:16:36.326Z,6.10
2019-05-20T11:19:05.125Z,5.75
2019-05-20T11:21:34.004Z,5.55
2019-05-20T11:24:03.416Z,6.05
2019-05-20T11:26:32.164Z,9.68
2019-05-20T11:29:01.457Z,9.45
2019-05-20T11:31:30.225Z,9.08
2019-05-20T11:33:59.059Z,7.78
2019-05-20T11:36:27.910Z,8.50
2019-05-20T11:38:56.729Z,10.45
2019-05-20T11:41:52.135Z,9.63
2019-05-20T11:43:56.334Z,4.90
2019-05-20T11:46:25.231Z,12.82
2019-05-20T11:48:54.027Z,10.82
2019-05-20T11:51:22.844Z,7.15
2019-05-20T11:53:51.625Z,10.98
2019-05-20T11:56:20.437Z,11.48
2019-05-20T11:58:49.187Z,7.00
2019-05-20T12:01:18.116Z,9.55
2019-05-20T12:03:46.873Z,9.58
2019-05-20T12:06:15.687Z,9.73
2019-05-20T12:08:44.469Z,5.33
2019-05-20T12:11:13.211Z,9.85
2019-05-20T12:13:42.121Z,7.83
2019-05-20T12:16:10.945Z,5.30
2019-05-20T12:18:39.769Z,7.70
2019-05-20T12:21:08.619Z,7.80
2019-05-20T12:23:37.407Z,5.45
2019-05-20T12:26:06.236Z,8.45
2019-05-20T12:28:35.025Z,8.95
2019-05-20T12:31:03.858Z,12.40
2019-05-20T12:33:32.713Z,7.40
2019-05-20T12:36:01.489Z,8.48
2019-05-20T12:38:30.310Z,9.85
2019-05-20T12:40:59.101Z,3.25
2019-05-20T12:43:27.845Z,7.30
2019-05-20T12:45:56.763Z,18.32
2019-05-20T12:48:25.577Z,6.92
2019-05-20T12:50:54.372Z,7.47
2019-05-20T12:53:23.146Z,11.90
2019-05-20T12:55:51.974Z,6.45
2019-05-20T12:58:20.866Z,9.10
2019-05-20T13:00:49.745Z,11.35
2019-05-20T13:03:18.787Z,9.18
2019-05-20T13:05:47.834Z,10.65
2019-05-20T13:08:16.644Z,10.18
2019-05-20T13:10:45.432Z,13.70
2019-05-20T13:13:14.168Z,7.30
2019-05-20T13:15:42.923Z,9.63
2019-05-20T13:18:11.730Z,10.08
2019-05-20T13:20:40.523Z,8.50
2019-05-20T13:23:11.543Z,6.67
2019-05-20T13:25:39.780Z,9.08
2019-05-20T13:28:08.536Z,5.83
2019-05-20T13:30:37.346Z,5.05
2019-05-20T13:33:06.161Z,5.92
2019-05-20T13:35:34.962Z,15.08
2019-05-20T13:38:03.731Z,9.23
2019-05-20T13:40:45.760Z,7.40
2019-05-20T13:43:03.078Z,4.95
2019-05-20T13:45:31.932Z,3.92
2019-05-20T13:48:00.744Z,7.15
2019-05-20T13:50:29.608Z,6.25
2019-05-20T13:52:58.434Z,7.28
2019-05-20T13:55:27.225Z,11.95
2019-05-20T13:57:56.076Z,13.85
2019-05-20T14:00:25.007Z,8.10
2019-05-20T14:02:53.848Z,5.70
2019-05-20T14:05:22.661Z,5.33
2019-05-20T14:07:51.484Z,8.05
2019-05-20T14:10:20.264Z,8.43
2019-05-20T14:12:49.169Z,7.00
2019-05-20T14:15:17.986Z,8.80
2019-05-20T14:17:47.015Z,4.97
2019-05-20T14:20:16.224Z,8.08
2019-05-20T14:22:44.970Z,7.22
2019-05-20T14:25:14.150Z,7.62
2019-05-20T14:27:43.023Z,9.60
2019-05-20T14:30:12.181Z,7.55
2019-05-20T14:32:41.109Z,5.65
2019-05-20T14:35:10.198Z,9.53
2019-05-20T14:37:38.953Z,13.98
2019-05-20T14:40:08.429Z,15.68
2019-05-20T14:42:37.393Z,7.25
2019-05-20T14:45:07.664Z,6.70
2019-05-20T14:47:36.466Z,8.20
2019-05-20T14:50:07.517Z,7.90
2019-05-20T14:52:36.441Z,9.08
2019-05-20T14:55:06.134Z,9.00
2019-05-20T14:57:34.871Z,8.78
2019-05-20T15:00:04.555Z,16.65
2019-05-20T15:02:33.405Z,9.85
2019-05-20T15:05:02.515Z,9.83
2019-05-20T15:07:31.641Z,7.85
2019-05-20T15:10:00.501Z,10.35
2019-05-20T15:12:29.379Z,7.47
2019-05-20T15:14:58.271Z,17.02
2019-05-20T15:17:27.140Z,10.68
2019-05-20T15:19:55.986Z,11.88
2019-05-20T15:22:24.964Z,10.25
2019-05-20T15:24:53.733Z,11.60
2019-05-20T15:27:22.581Z,10.13
2019-05-20T15:29:51.406Z,16.02
2019-05-20T15:32:20.159Z,12.25
2019-05-20T15:34:48.991Z,10.25
2019-05-20T15:37:17.782Z,8.48
2019-05-20T15:39:46.680Z,9.40
2019-05-20T15:42:15.460Z,18.12
2019-05-20T15:44:44.325Z,5.17
2019-05-20T15:47:13.185Z,7.90
2019-05-20T15:49:41.941Z,9.03
2019-05-20T15:52:10.843Z,9.48
2019-05-20T15:54:39.677Z,10.65
2019-05-20T15:57:08.527Z,18.35
2019-05-20T15:59:46.044Z,10.03
2019-05-20T16:02:07.900Z,9.65
2019-05-20T16:04:36.730Z,7.67
2019-05-20T16:07:05.540Z,14.00
2019-05-20T16:09:34.346Z,15.35
2019-05-20T16:12:03.205Z,9.98
2019-05-20T16:14:31.963Z,6.97
2019-05-20T16:17:00.812Z,8.83
2019-05-20T16:19:29.584Z,11.83
2019-05-20T16:21:58.392Z,9.43
2019-05-20T16:24:27.261Z,6.85
2019-05-20T16:26:56.042Z,11.03
2019-05-20T16:29:24.850Z,18.17
2019-05-20T16:31:53.671Z,9.95
2019-05-20T16:34:22.551Z,9.15
2019-05-20T16:36:51.349Z,8.10
2019-05-20T16:39:20.156Z,8.70
2019-05-20T16:41:48.976Z,7.22
2019-05-20T16:44:17.847Z,9.48
2019-05-20T16:46:46.689Z,10.50
2019-05-20T16:49:15.503Z,6.83
2019-05-20T16:51:44.257Z,7.90
2019-05-20T16:54:13.325Z,9.88
2019-05-20T16:56:42.199Z,6.87
2019-05-20T16:59:11.074Z,7.72
2019-05-20T17:01:46.224Z,10.58
2019-05-20T17:04:10.499Z,12.47
2019-05-20T17:06:39.267Z,9.25
2019-05-20T17:09:08.434Z,11.75
2019-05-20T17:11:37.219Z,13.55
2019-05-20T17:14:06.132Z,9.50
2019-05-20T17:16:34.990Z,8.00
2019-05-20T17:19:03.785Z,14.23
2019-05-20T17:21:32.656Z,8.93
2019-05-20T17:24:01.533Z,11.63
2019-05-20T17:29:59.026Z,14.73
2019-05-20T17:32:27.804Z,9.70
2019-05-20T17:34:56.599Z,9.28
2019-05-20T17:37:25.442Z,9.08
2019-05-20T17:39:54.245Z,12.65
2019-05-20T17:42:23.112Z,13.05
2019-05-20T17:44:51.959Z,10.63
2019-05-20T17:47:20.776Z,13.75
2019-05-20T17:49:49.723Z,10.18
2019-05-20T17:52:21.904Z,10.28
2019-05-20T17:54:50.816Z,9.85
2019-05-20T17:57:19.594Z,10.28
2019-05-20T17:59:48.371Z,11.43
2019-05-20T18:02:17.235Z,17.55
2019-05-20T18:04:46.020Z,9.60
2019-05-20T18:07:14.881Z,11.83
2019-05-20T18:09:47.695Z,12.23
2019-05-20T18:12:16.788Z,12.50
2019-05-20T18:14:47.188Z,8.28
2019-05-20T18:17:20.117Z,19.12
2019-05-20T18:19:48.971Z,19.05
2019-05-20T18:22:17.754Z,12.58
2019-05-20T18:24:46.546Z,11.90
2019-05-20T18:27:15.319Z,16.35
2019-05-20T18:29:44.145Z,19.80
2019-05-20T18:36:08.899Z,13.38
2019-05-20T18:38:37.710Z,13.45
2019-05-20T18:41:06.573Z,16.37
2019-05-20T18:43:35.351Z,9.60
2019-05-20T18:46:04.481Z,15.15
2019-05-20T18:48:33.267Z,11.88
2019-05-20T18:51:02.109Z,15.93
2019-05-20T18:53:30.935Z,16.60
2019-05-20T18:55:59.845Z,15.53
2019-05-20T18:58:28.690Z,8.63
2019-05-20T19:00:57.456Z,13.68
2019-05-20T19:03:27.127Z,13.38
2019-05-20T19:05:56.801Z,13.40
2019-05-20T19:08:25.723Z,12.07
2019-05-20T19:10:54.645Z,12.37
2019-05-20T19:13:23.554Z,13.53
2019-05-20T19:15:52.403Z,14.87
2019-05-20T19:18:21.180Z,14.70
2019-05-20T19:20:50.000Z,13.28
2019-05-20T19:23:18.774Z,12.43
2019-05-20T19:25:47.626Z,9.68
2019-05-20T19:28:16.348Z,9.40
2019-05-20T19:30:45.128Z,11.12
2019-05-20T19:33:15.298Z,14.63
2019-05-20T19:35:44.081Z,16.48
2019-05-20T19:38:12.938Z,14.78
2019-05-20T19:40:41.876Z,13.25
2019-05-20T19:43:10.720Z,13.10
2019-05-20T19:45:39.581Z,17.17
2019-05-20T19:48:08.452Z,12.37
2019-05-20T19:50:38.552Z,17.77
2019-05-20T19:53:07.492Z,9.98
2019-05-20T19:55:36.402Z,8.70
2019-05-20T19:58:05.773Z,15.25
2019-05-20T20:00:38.198Z,7.92
2019-05-20T20:03:08.399Z,10.23
2019-05-20T20:09:18.152Z,12.82
2019-05-20T20:11:47.040Z,6.97
2019-05-20T20:14:15.810Z,7.35
2019-05-20T20:16:44.621Z,6.22
2019-05-20T20:19:16.474Z,11.18
2019-05-20T20:21:45.292Z,7.33
2019-05-20T20:24:14.110Z,9.03
2019-05-20T20:26:42.855Z,8.78
2019-05-20T20:29:11.682Z,9.03
2019-05-20T20:31:40.464Z,10.72
2019-05-20T20:34:09.346Z,10.82
2019-05-20T20:36:38.165Z,8.95
2019-05-20T20:39:07.308Z,11.45
2019-05-20T20:41:36.113Z,8.90
2019-05-20T20:44:05.033Z,8.63
2019-05-20T20:46:33.836Z,5.85
2019-05-20T20:49:02.837Z,7.28
2019-05-20T20:51:31.615Z,6.62
2019-05-20T20:54:00.359Z,9.75
2019-05-20T20:56:29.159Z,6.42
2019-05-20T20:58:57.938Z,7.15
2019-05-20T21:01:26.779Z,7.58
2019-05-20T21:03:55.518Z,12.43
2019-05-20T21:06:24.298Z,9.68
2019-05-20T21:08:53.134Z,15.90
2019-05-20T21:11:22.005Z,10.00
2019-05-20T21:13:50.802Z,13.08
2019-05-20T21:16:19.603Z,8.53
2019-05-20T21:18:48.346Z,11.95
2019-05-20T21:21:17.118Z,11.70
2019-05-20T21:23:45.950Z,11.30
2019-05-20T21:26:14.722Z,12.00
2019-05-20T21:28:43.521Z,12.68
2019-05-20T21:31:12.368Z,9.30
2019-05-20T21:33:41.254Z,10.05
2019-05-20T21:36:10.055Z,12.98
2019-05-20T21:38:38.864Z,8.95
2019-05-20T21:41:07.647Z,10.88
2019-05-20T21:43:36.441Z,18.77
2019-05-20T21:46:05.308Z,15.88
2019-05-20T21:48:34.330Z,10.60
2019-05-20T21:51:04.153Z,14.25
2019-05-20T21:53:32.933Z,17.95
2019-05-20T21:56:01.804Z,21.30
2019-05-20T21:58:30.687Z,26.17
2019-05-20T22:00:59.822Z,23.47
2019-05-20T22:03:28.710Z,25.60
2019-05-20T22:05:57.595Z,26.15
2019-05-20T22:08:26.407Z,23.07
2019-05-20T22:10:55.327Z,23.92
2019-05-20T22:13:24.120Z,23.60
2019-05-20T22:15:52.908Z,23.55
2019-05-20T22:18:21.694Z,20.27
2019-05-20T22:20:50.528Z,22.27
2019-05-20T22:23:29.759Z,25.85
2019-05-20T22:25:58.635Z,32.10
2019-05-20T22:31:56.238Z,24.15
2019-05-20T22:34:25.007Z,29.63
2019-05-20T22:36:53.815Z,30.62
2019-05-20T22:39:22.649Z,31.52
2019-05-20T22:41:51.411Z,36.88
2019-05-20T22:44:20.303Z,37.00
2019-05-20T22:46:49.111Z,36.75
2019-05-20T22:49:17.919Z,35.17
2019-05-20T22:51:46.772Z,31.82
2019-05-20T22:54:15.684Z,26.35
2019-05-20T22:56:44.498Z,23.60
2019-05-20T22:59:13.355Z,25.45
2019-05-20T23:01:42.192Z,27.35
2019-05-20T23:04:11.078Z,23.85
2019-05-20T23:06:39.892Z,21.45
2019-05-20T23:09:10.788Z,18.55
2019-05-20T23:11:39.318Z,22.62
2019-05-20T23:14:08.169Z,20.37
2019-05-20T23:16:36.964Z,21.25
2019-05-20T23:19:05.788Z,19.67
2019-05-20T23:21:34.578Z,18.82
2019-05-20T23:24:03.359Z,18.95
2019-05-20T23:26:32.155Z,17.67
2019-05-20T23:29:00.999Z,15.43
2019-05-20T23:31:29.919Z,13.75
2019-05-20T23:34:11.664Z,15.03
2019-05-20T23:36:29.150Z,17.27
2019-05-20T23:38:57.928Z,11.15
2019-05-20T23:41:26.756Z,15.03
2019-05-20T23:43:55.529Z,11.48
2019-05-20T23:46:24.394Z,10.63
2019-05-20T23:48:53.183Z,12.82
2019-05-20T23:51:22.025Z,11.20
2019-05-20T23:53:50.766Z,12.07
2019-05-20T23:56:19.828Z,10.40
2019-05-20T23:58:48.768Z,9.45
